createdAt,value
2023-11-20T00:00:13.976Z,10.57
2023-11-20T00:02:44.798Z,9.98
2023-11-20T00:05:12.363Z,10.65
2023-11-20T00:07:39.933Z,9.35
2023-11-20T00:10:07.345Z,10.73
2023-11-20T00:12:34.358Z,8.87
2023-11-20T00:15:01.387Z,10.38
2023-11-20T00:17:28.416Z,9.32
2023-11-20T00:19:55.521Z,9.70
2023-11-20T00:22:22.854Z,10.02
2023-11-20T00:24:49.996Z,13.07
2023-11-20T00:27:17.002Z,8.45
2023-11-20T00:29:44.167Z,10.98
2023-11-20T00:32:11.204Z,9.48
2023-11-20T00:34:39.049Z,11.15
2023-11-20T00:37:06.295Z,8.40
2023-11-20T00:39:33.823Z,9.30
2023-11-20T00:42:00.862Z,11.38
2023-11-20T00:44:28.045Z,11.07
2023-11-20T00:46:55.708Z,8.82
2023-11-20T00:49:23.507Z,8.43
2023-11-20T00:51:50.566Z,8.15
2023-11-20T00:54:18.136Z,9.55
2023-11-20T00:56:45.272Z,7.45
2023-11-20T00:59:12.287Z,8.82
2023-11-20T01:01:39.763Z,9.60
2023-11-20T01:04:06.988Z,8.38
2023-11-20T01:06:41.272Z,8.50
2023-11-20T01:09:09.290Z,9.25
2023-11-20T01:11:37.851Z,7.28
2023-11-20T01:14:06.631Z,8.47
2023-11-20T01:16:33.634Z,6.60
2023-11-20T01:19:00.783Z,7.60
2023-11-20T01:21:27.782Z,7.50
2023-11-20T01:23:54.830Z,7.05
2023-11-20T01:26:21.855Z,7.70
2023-11-20T01:28:49.728Z,6.68
2023-11-20T01:31:16.873Z,7.70
2023-11-20T01:33:44.062Z,9.05
2023-11-20T01:36:17.047Z,7.35
2023-11-20T01:38:44.069Z,8.23
2023-11-20T01:41:11.014Z,7.32
2023-11-20T01:43:38.110Z,6.47
2023-11-20T01:46:10.225Z,6.70
2023-11-20T01:48:37.575Z,7.40
2023-11-20T01:51:05.885Z,7.77
2023-11-20T01:53:33.742Z,6.72
2023-11-20T01:56:01.176Z,6.22
2023-11-20T01:58:28.299Z,6.22
2023-11-20T02:05:02.679Z,5.73
2023-11-20T02:07:29.782Z,6.60
2023-11-20T02:09:57.837Z,5.47
2023-11-20T02:12:24.852Z,5.95
2023-11-20T02:14:52.024Z,6.28
2023-11-20T02:17:19.280Z,7.03
2023-11-20T02:19:49.474Z,7.70
2023-11-20T02:22:17.323Z,6.55
2023-11-20T02:24:45.787Z,7.28
2023-11-20T02:27:49.147Z,6.65
2023-11-20T02:30:16.488Z,6.80
2023-11-20T02:32:44.311Z,8.13
2023-11-20T02:35:20.202Z,8.00
2023-11-20T02:37:48.083Z,7.68
2023-11-20T02:40:15.391Z,7.82
2023-11-20T02:42:42.490Z,6.77
2023-11-20T02:45:14.134Z,7.78
2023-11-20T02:47:41.428Z,8.45
2023-11-20T02:50:09.411Z,10.80
2023-11-20T02:52:36.549Z,7.18
2023-11-20T02:55:08.173Z,8.70
2023-11-20T02:57:35.420Z,7.88
2023-11-20T03:00:03.264Z,8.27
2023-11-20T03:02:30.467Z,7.68
2023-11-20T03:04:58.249Z,7.75
2023-11-20T03:07:25.306Z,10.53
2023-11-20T03:09:52.843Z,7.68
2023-11-20T03:12:20.102Z,6.82
2023-11-20T03:14:47.121Z,11.45
2023-11-20T03:17:14.436Z,8.32
2023-11-20T03:19:41.465Z,9.13
2023-11-20T03:22:08.490Z,9.90
2023-11-20T03:24:35.653Z,10.05
2023-11-20T03:27:02.744Z,11.15
2023-11-20T03:29:29.681Z,11.20
2023-11-20T03:31:56.990Z,9.70
2023-11-20T03:34:23.961Z,10.85
2023-11-20T03:36:51.172Z,10.48
2023-11-20T03:39:18.141Z,9.27
2023-11-20T03:41:45.120Z,9.40
2023-11-20T03:44:12.107Z,9.07
2023-11-20T03:46:39.168Z,9.77
2023-11-20T03:49:07.449Z,13.10
2023-11-20T03:51:35.010Z,11.02
2023-11-20T03:54:01.997Z,8.65
2023-11-20T03:56:28.960Z,9.13
2023-11-20T03:58:55.901Z,9.98
2023-11-20T04:01:22.945Z,9.48
2023-11-20T04:03:49.946Z,7.85
2023-11-20T04:06:17.012Z,10.95
2023-11-20T04:08:43.942Z,9.27
2023-11-20T04:11:11.039Z,11.35
2023-11-20T04:13:38.024Z,10.10
2023-11-20T04:16:05.569Z,9.02
2023-11-20T04:18:33.077Z,8.15
2023-11-20T04:21:00.430Z,7.80
2023-11-20T04:23:28.649Z,9.18
2023-11-20T04:25:55.834Z,7.85
2023-11-20T04:28:23.433Z,11.07
2023-11-20T04:30:50.706Z,7.55
2023-11-20T04:33:17.754Z,8.73
2023-11-20T04:35:44.698Z,9.55
2023-11-20T04:38:11.707Z,9.80
2023-11-20T04:40:38.679Z,10.15
2023-11-20T04:43:05.932Z,9.35
2023-11-20T04:45:32.988Z,7.20
2023-11-20T04:48:00.056Z,8.20
2023-11-20T04:50:27.095Z,7.68
2023-11-20T04:52:54.526Z,10.63
2023-11-20T04:55:21.639Z,10.10
2023-11-20T04:57:48.955Z,9.20
2023-11-20T05:00:16.392Z,9.10
2023-11-20T05:02:43.388Z,8.40
2023-11-20T05:05:11.132Z,9.13
2023-11-20T05:07:38.189Z,8.55
2023-11-20T05:10:07.304Z,10.50
2023-11-20T05:12:34.670Z,14.57
2023-11-20T05:15:01.946Z,12.25
2023-11-20T05:17:30.306Z,11.75
2023-11-20T05:19:57.413Z,10.35
2023-11-20T05:22:24.443Z,7.70
2023-11-20T05:24:51.392Z,10.32
2023-11-20T05:27:19.570Z,10.38
2023-11-20T05:29:48.142Z,11.85
2023-11-20T05:32:15.193Z,10.73
2023-11-20T05:34:43.901Z,9.13
2023-11-20T05:37:11.002Z,9.23
2023-11-20T05:39:38.012Z,10.55
2023-11-20T05:42:05.277Z,12.05
2023-11-20T05:44:32.349Z,11.57
2023-11-20T05:46:59.522Z,13.10
2023-11-20T05:49:26.489Z,10.75
2023-11-20T05:51:53.755Z,9.68
2023-11-20T05:54:20.675Z,9.35
2023-11-20T05:56:47.825Z,7.93
2023-11-20T05:59:14.976Z,8.90
2023-11-20T06:01:43.583Z,9.18
2023-11-20T06:04:11.452Z,11.50
2023-11-20T06:06:39.837Z,14.82
2023-11-20T06:09:07.524Z,11.70
2023-11-20T06:11:35.554Z,8.20
2023-11-20T06:14:04.041Z,7.97
2023-11-20T06:16:31.749Z,9.63
2023-11-20T06:18:58.854Z,10.60
2023-11-20T06:21:26.047Z,9.70
2023-11-20T06:23:54.413Z,10.40
2023-11-20T06:26:21.757Z,10.23
2023-11-20T06:28:48.706Z,9.80
2023-11-20T06:31:15.739Z,12.35
2023-11-20T06:33:43.313Z,10.45
2023-11-20T06:36:11.648Z,9.13
2023-11-20T06:38:38.709Z,9.88
2023-11-20T06:41:06.077Z,9.70
2023-11-20T06:43:33.220Z,14.23
2023-11-20T06:46:01.510Z,11.82
2023-11-20T06:48:29.491Z,13.73
2023-11-20T06:50:56.765Z,14.10
2023-11-20T06:53:24.826Z,7.55
2023-11-20T06:55:52.132Z,9.45
2023-11-20T06:58:19.178Z,10.50
2023-11-20T07:00:46.229Z,9.33
2023-11-20T07:03:13.246Z,11.15
2023-11-20T07:05:40.437Z,15.30
2023-11-20T07:08:10.412Z,7.93
2023-11-20T07:10:38.397Z,9.57
2023-11-20T07:13:06.103Z,9.37
2023-11-20T07:15:34.639Z,7.82
2023-11-20T07:18:02.412Z,9.50
2023-11-20T07:20:29.786Z,9.02
2023-11-20T07:22:57.414Z,9.77
2023-11-20T07:25:24.732Z,8.60
2023-11-20T07:27:51.934Z,8.20
2023-11-20T07:30:21.243Z,11.10
2023-11-20T07:32:48.870Z,7.80
2023-11-20T07:35:16.281Z,7.50
2023-11-20T07:37:43.599Z,10.57
2023-11-20T07:40:13.074Z,9.65
2023-11-20T07:42:41.610Z,9.18
2023-11-20T07:45:09.737Z,9.48
2023-11-20T07:47:36.762Z,8.23
2023-11-20T07:50:04.738Z,9.73
2023-11-20T07:52:32.662Z,8.38
2023-11-20T07:54:59.905Z,8.80
2023-11-20T07:57:27.279Z,9.30
2023-11-20T07:59:54.243Z,10.98
2023-11-20T08:02:22.030Z,10.60
2023-11-20T08:04:49.876Z,9.48
2023-11-20T08:07:17.823Z,9.57
2023-11-20T08:09:45.004Z,10.50
2023-11-20T08:12:12.027Z,11.70
2023-11-20T08:14:39.068Z,12.17
2023-11-20T08:17:06.181Z,9.55
2023-11-20T08:19:33.204Z,10.10
2023-11-20T08:22:00.345Z,10.73
2023-11-20T08:24:27.354Z,11.43
2023-11-20T08:26:54.325Z,9.80
2023-11-20T08:29:21.333Z,10.25
2023-11-20T08:31:48.811Z,11.57
2023-11-20T08:34:16.694Z,13.25
2023-11-20T08:36:45.645Z,11.40
2023-11-20T08:39:13.828Z,7.03
2023-11-20T08:41:41.754Z,9.25
2023-11-20T08:44:09.497Z,10.73
2023-11-20T08:46:37.043Z,10.05
2023-11-20T08:49:06.513Z,9.65
2023-11-20T08:51:34.483Z,8.10
2023-11-20T08:54:02.530Z,9.00
2023-11-20T08:56:29.750Z,8.60
2023-11-20T08:58:56.727Z,10.65
2023-11-20T09:01:37.312Z,11.07
2023-11-20T09:04:05.326Z,8.97
2023-11-20T09:06:33.607Z,11.98
2023-11-20T09:09:00.710Z,13.98
2023-11-20T09:11:30.236Z,13.50
2023-11-20T09:13:57.370Z,15.68
2023-11-20T09:16:24.707Z,11.87
2023-11-20T09:18:52.038Z,11.73
2023-11-20T09:21:21.472Z,13.90
2023-11-20T09:23:50.970Z,23.83
2023-11-20T09:26:18.353Z,17.65
2023-11-20T09:28:47.461Z,19.33
2023-11-20T09:31:21.731Z,20.73
2023-11-20T09:33:53.075Z,10.73
2023-11-20T09:36:20.729Z,6.88
2023-11-20T09:38:47.810Z,5.82
2023-11-20T09:41:15.320Z,4.83
2023-11-20T09:43:45.416Z,5.22
2023-11-20T09:46:15.318Z,5.78
2023-11-20T09:48:45.363Z,7.25
2023-11-20T09:51:14.491Z,4.65
2023-11-20T09:53:43.502Z,4.30
2023-11-20T09:56:14.202Z,5.65
2023-11-20T09:58:45.128Z,4.55
2023-11-20T10:01:15.361Z,4.20
2023-11-20T10:03:45.770Z,4.38
2023-11-20T10:06:23.659Z,6.90
2023-11-20T10:08:52.402Z,4.47
2023-11-20T10:11:23.041Z,5.22
2023-11-20T10:13:50.398Z,5.35
2023-11-20T10:16:21.280Z,5.30
2023-11-20T10:18:48.725Z,4.67
2023-11-20T10:21:16.246Z,4.78
2023-11-20T10:23:43.913Z,3.97
2023-11-20T10:26:12.422Z,8.65
2023-11-20T10:28:40.588Z,5.18
2023-11-20T10:31:08.846Z,4.43
2023-11-20T10:33:39.321Z,3.90
2023-11-20T10:36:12.972Z,4.30
2023-11-20T10:38:39.992Z,3.75
2023-11-20T10:41:11.464Z,4.15
2023-11-20T10:43:39.541Z,5.00
2023-11-20T10:46:07.012Z,3.85
2023-11-20T10:48:38.752Z,4.55
2023-11-20T10:51:11.161Z,3.53
2023-11-20T10:53:43.248Z,3.72
2023-11-20T10:56:13.218Z,3.73
2023-11-20T10:58:42.031Z,17.88
2023-11-20T11:01:10.484Z,13.30
2023-11-20T11:03:39.261Z,12.07
2023-11-20T11:06:13.402Z,10.35
2023-11-20T11:08:47.142Z,10.93
2023-11-20T11:11:18.115Z,6.90
2023-11-20T11:13:45.937Z,7.53
2023-11-20T11:16:43.662Z,6.15
2023-11-20T11:19:16.460Z,7.28
2023-11-20T11:22:06.156Z,4.33
2023-11-20T11:24:33.748Z,3.53
2023-11-20T11:27:07.858Z,4.80
2023-11-20T11:29:39.439Z,3.53
2023-11-20T11:32:52.597Z,5.85
2023-11-20T11:35:57.507Z,4.67
2023-11-20T11:38:38.240Z,3.47
2023-11-20T11:41:26.255Z,5.88
2023-11-20T11:44:13.453Z,5.28
2023-11-20T11:46:43.643Z,7.15
2023-11-20T11:49:24.303Z,4.40
2023-11-20T11:51:58.894Z,3.13
2023-11-20T11:54:28.034Z,3.58
2023-11-20T11:57:14.341Z,3.88
2023-11-20T11:59:44.384Z,5.43
2023-11-20T12:02:20.002Z,4.00
2023-11-20T12:04:53.339Z,4.20
2023-11-20T12:07:41.625Z,4.78
2023-11-20T12:10:12.970Z,4.40
2023-11-20T12:12:52.479Z,3.72
2023-11-20T12:15:32.134Z,5.17
2023-11-20T12:18:05.282Z,7.13
2023-11-20T12:20:35.142Z,5.03
2023-11-20T12:23:09.246Z,8.25
2023-11-20T12:25:40.393Z,5.35
2023-11-20T12:28:11.025Z,7.13
2023-11-20T12:30:39.107Z,6.28
2023-11-20T12:33:06.202Z,6.30
2023-11-20T12:35:33.335Z,8.60
2023-11-20T12:38:01.482Z,5.75
2023-11-20T12:40:28.812Z,4.70
2023-11-20T12:42:55.897Z,5.50
2023-11-20T12:45:23.251Z,6.35
2023-11-20T12:47:50.993Z,5.05
2023-11-20T12:50:20.894Z,4.47
2023-11-20T12:52:48.560Z,8.77
2023-11-20T12:55:17.674Z,5.13
2023-11-20T12:57:44.758Z,6.28
2023-11-20T13:00:13.124Z,5.50
2023-11-20T13:02:41.022Z,7.25
2023-11-20T13:05:13.828Z,7.73
2023-11-20T13:07:43.478Z,5.47
2023-11-20T13:10:11.094Z,4.80
2023-11-20T13:12:38.965Z,5.80
2023-11-20T13:15:09.026Z,8.63
2023-11-20T13:17:39.292Z,8.57
2023-11-20T13:20:38.930Z,8.40
2023-11-20T13:23:06.329Z,7.35
2023-11-20T13:25:33.377Z,7.13
2023-11-20T13:28:01.483Z,6.90
2023-11-20T13:30:28.515Z,7.73
2023-11-20T13:32:55.814Z,10.70
2023-11-20T13:35:22.814Z,3.80
2023-11-20T13:37:57.223Z,5.00
2023-11-20T13:40:30.765Z,5.93
2023-11-20T13:43:04.730Z,7.23
2023-11-20T13:45:32.641Z,6.85
2023-11-20T13:48:06.297Z,9.80
2023-11-20T13:50:33.400Z,6.93
2023-11-20T13:53:03.889Z,5.25
2023-11-20T13:55:30.951Z,6.80
2023-11-20T13:57:57.984Z,7.35
2023-11-20T14:00:25.426Z,7.05
2023-11-20T14:02:53.025Z,6.43
2023-11-20T14:05:20.847Z,6.93
2023-11-20T14:07:48.690Z,8.20
2023-11-20T14:10:16.744Z,8.15
2023-11-20T14:12:44.312Z,7.55
2023-11-20T14:15:13.656Z,6.40
2023-11-20T14:17:41.259Z,6.90
2023-11-20T14:20:14.219Z,7.93
2023-11-20T14:22:46.161Z,6.43
2023-11-20T14:25:15.430Z,6.45
2023-11-20T14:27:42.613Z,8.77
2023-11-20T14:30:15.834Z,5.72
2023-11-20T14:32:47.056Z,8.90
2023-11-20T14:35:16.934Z,16.55
2023-11-20T14:37:45.087Z,9.45
2023-11-20T14:40:14.131Z,6.43
2023-11-20T14:42:42.586Z,6.68
2023-11-20T14:45:11.483Z,6.73
2023-11-20T14:47:42.650Z,8.07
2023-11-20T14:50:12.164Z,9.15
2023-11-20T14:52:40.208Z,8.02
2023-11-20T14:55:08.574Z,8.65
2023-11-20T14:57:36.435Z,6.73
2023-11-20T15:00:05.168Z,9.50
2023-11-20T15:02:32.711Z,6.57
2023-11-20T15:04:59.960Z,7.70
2023-11-20T15:07:46.196Z,7.57
2023-11-20T15:10:15.166Z,8.30
2023-11-20T15:12:47.319Z,9.68
2023-11-20T15:15:15.934Z,11.27
2023-11-20T15:17:45.870Z,10.90
2023-11-20T15:20:24.012Z,9.02
2023-11-20T15:22:52.486Z,25.27
2023-11-20T15:25:19.907Z,15.57
2023-11-20T15:27:47.220Z,31.70
2023-11-20T15:30:17.052Z,35.25
2023-11-20T15:32:46.636Z,38.70
2023-11-20T15:35:13.880Z,15.80
2023-11-20T15:37:41.465Z,10.25
2023-11-20T15:40:13.098Z,10.95
2023-11-20T15:42:41.879Z,9.27
2023-11-20T15:45:09.677Z,11.63
2023-11-20T15:47:37.287Z,20.93
2023-11-20T15:50:05.055Z,10.82
2023-11-20T15:52:32.118Z,14.05
2023-11-20T15:55:01.091Z,7.95
2023-11-20T15:57:31.277Z,6.55
2023-11-20T16:00:00.638Z,5.83
2023-11-20T16:02:30.613Z,7.20
2023-11-20T16:04:58.545Z,8.80
2023-11-20T16:07:25.890Z,6.10
2023-11-20T16:09:52.877Z,7.82
2023-11-20T16:12:20.828Z,9.70
2023-11-20T16:14:48.094Z,7.07
2023-11-20T16:17:15.472Z,5.43
2023-11-20T16:19:42.858Z,5.45
2023-11-20T16:22:09.898Z,5.00
2023-11-20T16:24:36.944Z,5.97
2023-11-20T16:27:04.333Z,5.93
2023-11-20T16:29:31.281Z,3.83
2023-11-20T16:32:00.532Z,6.30
2023-11-20T16:34:27.980Z,4.72
2023-11-20T16:36:56.251Z,5.60
2023-11-20T16:39:23.807Z,4.22
2023-11-20T16:41:51.952Z,6.22
2023-11-20T16:44:22.530Z,10.15
2023-11-20T16:46:50.643Z,6.20
2023-11-20T16:49:18.132Z,8.73
2023-11-20T16:51:45.207Z,7.18
2023-11-20T16:54:12.275Z,6.35
2023-11-20T16:56:39.965Z,8.80
2023-11-20T16:59:07.083Z,8.73
2023-11-20T17:01:34.432Z,8.73
2023-11-20T17:04:03.378Z,6.45
2023-11-20T17:06:58.599Z,6.65
2023-11-20T17:09:26.913Z,7.55
2023-11-20T17:11:53.927Z,8.05
2023-11-20T17:14:21.019Z,6.87
2023-11-20T17:16:52.110Z,6.25
2023-11-20T17:19:20.355Z,6.20
2023-11-20T17:21:49.143Z,9.30
2023-11-20T17:24:16.625Z,6.75
2023-11-20T17:26:43.867Z,6.67
2023-11-20T17:29:12.823Z,6.95
2023-11-20T17:31:39.969Z,10.93
2023-11-20T17:34:15.096Z,8.23
2023-11-20T17:36:45.458Z,8.60
2023-11-20T17:39:13.360Z,7.07
2023-11-20T17:41:40.526Z,9.18
2023-11-20T17:44:07.850Z,7.30
2023-11-20T17:46:36.259Z,7.95
2023-11-20T17:49:03.433Z,8.18
2023-11-20T17:51:30.483Z,7.90
2023-11-20T17:53:57.682Z,10.07
2023-11-20T17:56:24.664Z,7.47
2023-11-20T17:58:51.741Z,7.65
2023-11-20T18:01:18.840Z,8.20
2023-11-20T18:03:46.506Z,8.03
2023-11-20T18:06:13.721Z,9.18
2023-11-20T18:08:40.844Z,12.40
2023-11-20T18:11:08.036Z,10.73
2023-11-20T18:13:35.262Z,8.70
2023-11-20T18:16:05.117Z,8.23
2023-11-20T18:18:32.344Z,10.23
2023-11-20T18:20:59.426Z,8.85
2023-11-20T18:23:28.061Z,12.50
2023-11-20T18:25:55.518Z,7.32
2023-11-20T18:28:22.650Z,12.57
2023-11-20T18:30:51.036Z,10.57
2023-11-20T18:33:18.142Z,9.50
2023-11-20T18:35:45.287Z,10.23
2023-11-20T18:38:13.795Z,11.52
2023-11-20T18:40:41.541Z,10.73
2023-11-20T18:43:09.302Z,9.00
2023-11-20T18:45:36.568Z,9.48
2023-11-20T18:48:04.343Z,8.57
2023-11-20T18:50:31.460Z,8.73
2023-11-20T18:52:58.379Z,6.20
2023-11-20T18:55:26.856Z,8.32
2023-11-20T18:57:55.099Z,7.63
2023-11-20T19:00:24.002Z,9.10
2023-11-20T19:02:53.138Z,10.32
2023-11-20T19:05:20.554Z,9.40
2023-11-20T19:07:47.655Z,9.95
2023-11-20T19:10:14.767Z,8.57
2023-11-20T19:12:46.040Z,10.05
2023-11-20T19:15:14.133Z,12.75
2023-11-20T19:17:42.559Z,6.43
2023-11-20T19:20:15.862Z,7.00
2023-11-20T19:22:43.303Z,8.30
2023-11-20T19:25:12.472Z,7.10
2023-11-20T19:27:40.588Z,6.18
2023-11-20T19:30:09.674Z,6.73
2023-11-20T19:32:38.054Z,7.20
2023-11-20T19:35:08.115Z,8.23
2023-11-20T19:37:36.606Z,6.63
2023-11-20T19:40:08.407Z,5.68
2023-11-20T19:42:36.194Z,8.97
2023-11-20T19:45:07.442Z,8.18
2023-11-20T19:47:34.586Z,8.18
2023-11-20T19:50:03.119Z,7.55
2023-11-20T19:52:30.392Z,8.05
2023-11-20T19:54:57.960Z,6.57
2023-11-20T19:57:26.298Z,7.57
2023-11-20T20:00:06.821Z,6.97
2023-11-20T20:02:51.180Z,8.65
2023-11-20T20:05:23.588Z,6.78
2023-11-20T20:07:52.541Z,7.03
2023-11-20T20:10:22.791Z,6.18
2023-11-20T20:12:50.206Z,8.73
2023-11-20T20:15:17.687Z,8.25
2023-11-20T20:17:45.490Z,7.68
2023-11-20T20:20:13.088Z,6.90
2023-11-20T20:22:40.333Z,6.13
2023-11-20T20:25:08.099Z,5.78
2023-11-20T20:27:35.395Z,6.15
2023-11-20T20:30:04.666Z,8.05
2023-11-20T20:32:32.165Z,6.50
2023-11-20T20:34:59.932Z,8.30
2023-11-20T20:37:27.734Z,9.70
2023-11-20T20:39:54.757Z,9.90
2023-11-20T20:42:22.932Z,8.50
2023-11-20T20:44:52.070Z,7.63
2023-11-20T20:47:19.255Z,8.15
2023-11-20T20:49:48.179Z,10.15
2023-11-20T20:52:16.271Z,6.68
2023-11-20T20:54:43.513Z,9.95
2023-11-20T20:57:11.334Z,7.97
2023-11-20T20:59:38.412Z,9.45
2023-11-20T21:02:05.913Z,10.40
2023-11-20T21:04:33.030Z,10.98
2023-11-20T21:07:04.236Z,8.45
2023-11-20T21:09:31.619Z,6.10
2023-11-20T21:12:00.381Z,12.10
2023-11-20T21:14:27.603Z,7.55
2023-11-20T21:16:55.635Z,8.25
2023-11-20T21:19:22.751Z,5.50
2023-11-20T21:21:49.763Z,6.93
2023-11-20T21:24:16.796Z,6.90
2023-11-20T21:26:44.249Z,6.00
2023-11-20T21:29:11.898Z,6.88
2023-11-20T21:31:39.014Z,7.90
2023-11-20T21:34:06.156Z,8.40
2023-11-20T21:36:33.487Z,8.02
2023-11-20T21:39:00.553Z,6.80
2023-11-20T21:41:28.901Z,5.55
2023-11-20T21:43:56.046Z,5.45
2023-11-20T21:46:24.963Z,6.77
2023-11-20T21:48:53.154Z,6.57
2023-11-20T21:51:20.247Z,7.03
2023-11-20T21:53:48.279Z,7.03
2023-11-20T21:56:15.227Z,8.40
2023-11-20T21:58:42.296Z,5.73
2023-11-20T22:01:09.613Z,6.00
2023-11-20T22:03:37.265Z,4.95
2023-11-20T22:06:04.760Z,6.68
2023-11-20T22:08:31.903Z,7.90
2023-11-20T22:10:58.898Z,5.47
2023-11-20T22:13:25.906Z,6.82
2023-11-20T22:15:52.934Z,6.70
2023-11-20T22:18:19.918Z,5.05
2023-11-20T22:20:47.751Z,6.97
2023-11-20T22:23:14.693Z,8.20
2023-11-20T22:25:41.840Z,8.45
2023-11-20T22:28:09.852Z,7.07
2023-11-20T22:30:37.458Z,8.30
2023-11-20T22:33:04.534Z,6.43
2023-11-20T22:35:31.558Z,7.10
2023-11-20T22:37:59.907Z,4.72
2023-11-20T22:40:27.239Z,6.55
2023-11-20T22:42:54.661Z,7.85
2023-11-20T22:45:21.808Z,4.82
2023-11-20T22:47:48.773Z,8.00
2023-11-20T22:50:17.680Z,5.65
2023-11-20T22:52:44.845Z,8.02
2023-11-20T22:55:12.237Z,7.03
2023-11-20T22:57:39.692Z,7.10
2023-11-20T23:00:08.527Z,7.10
2023-11-20T23:02:36.435Z,7.88
2023-11-20T23:05:03.640Z,8.27
2023-11-20T23:07:30.680Z,6.40
2023-11-20T23:09:58.776Z,6.70
2023-11-20T23:12:25.856Z,7.13
2023-11-20T23:14:52.842Z,7.90
2023-11-20T23:17:19.923Z,7.50
2023-11-20T23:19:46.938Z,7.60
2023-11-20T23:22:14.198Z,7.85
2023-11-20T23:24:41.145Z,5.80
2023-11-20T23:27:09.348Z,6.40
2023-11-20T23:29:38.149Z,6.75
2023-11-20T23:32:05.764Z,7.00
2023-11-20T23:34:33.402Z,6.93
2023-11-20T23:37:00.945Z,6.20
2023-11-20T23:39:27.881Z,4.05
2023-11-20T23:41:55.029Z,6.85
2023-11-20T23:44:22.032Z,7.10
2023-11-20T23:46:49.744Z,5.25
2023-11-20T23:49:18.687Z,6.40
2023-11-20T23:51:45.963Z,5.32
2023-11-20T23:54:12.919Z,5.97
2023-11-20T23:56:40.013Z,6.38
2023-11-20T23:59:07.600Z,4.20
